sensor_id;sensor_type;location;lat;lon;timestamp;temperature;humidity
10312;DHT22;5201;48.776;9.128;2022-12-10T00:01:10;2.70;99.90
10312;DHT22;5201;48.776;9.128;2022-12-10T00:03:36;2.70;99.90
10312;DHT22;5201;48.776;9.128;2022-12-10T00:06:03;2.70;99.90
10312;DHT22;5201;48.776;9.128;2022-12-10T00:08:29;2.90;99.90
10312;DHT22;5201;48.776;9.128;2022-12-10T00:10:55;3.00;99.90
10312;DHT22;5201;48.776;9.128;2022-12-10T00:13:21;2.90;99.90
10312;DHT22;5201;48.776;9.128;2022-12-10T00:15:47;2.80;99.90
10312;DHT22;5201;48.776;9.128;2022-12-10T00:18:12;2.90;99.90
10312;DHT22;5201;48.776;9.128;2022-12-10T00:20:38;3.00;99.90
10312;DHT22;5201;48.776;9.128;2022-12-10T00:23:03;2.80;99.90
10312;DHT22;5201;48.776;9.128;2022-12-10T00:25:29;2.50;99.90
10312;DHT22;5201;48.776;9.128;2022-12-10T00:27:56;2.20;99.90
10312;DHT22;5201;48.776;9.128;2022-12-10T00:30:22;1.90;99.90
10312;DHT22;5201;48.776;9.128;2022-12-10T00:32:47;1.90;99.90
10312;DHT22;5201;48.776;9.128;2022-12-10T00:35:13;1.80;99.90
10312;DHT22;5201;48.776;9.128;2022-12-10T00:37:39;1.90;99.90
10312;DHT22;5201;48.776;9.128;2022-12-10T00:40:04;1.90;99.90
10312;DHT22;5201;48.776;9.128;2022-12-10T00:42:30;1.90;99.90
10312;DHT22;5201;48.776;9.128;2022-12-10T00:44:56;1.60;99.90
10312;DHT22;5201;48.776;9.128;2022-12-10T00:47:21;2.00;99.90
10312;DHT22;5201;48.776;9.128;2022-12-10T00:49:47;2.20;99.90
10312;DHT22;5201;48.776;9.128;2022-12-10T00:52:12;2.10;99.90
10312;DHT22;5201;48.776;9.128;2022-12-10T00:54:38;2.20;99.90
10312;DHT22;5201;48.776;9.128;2022-12-10T00:57:04;2.10;99.90
10312;DHT22;5201;48.776;9.128;2022-12-10T00:59:29;1.90;99.90
10312;DHT22;5201;48.776;9.128;2022-12-10T01:01:55;1.90;99.90
10312;DHT22;5201;48.776;9.128;2022-12-10T01:04:20;2.00;99.90
10312;DHT22;5201;48.776;9.128;2022-12-10T01:06:49;2.10;99.90
10312;DHT22;5201;48.776;9.128;2022-12-10T01:09:18;1.90;99.90
10312;DHT22;5201;48.776;9.128;2022-12-10T01:11:45;2.10;99.90
10312;DHT22;5201;48.776;9.128;2022-12-10T01:14:14;1.80;99.90
10312;DHT22;5201;48.776;9.128;2022-12-10T01:16:40;2.00;99.90
10312;DHT22;5201;48.776;9.128;2022-12-10T01:19:06;2.40;99.90
10312;DHT22;5201;48.776;9.128;2022-12-10T01:21:32;2.30;99.90
10312;DHT22;5201;48.776;9.128;2022-12-10T01:23:58;0.60;99.90
10312;DHT22;5201;48.776;9.128;2022-12-10T01:26:26;2.20;99.90
10312;DHT22;5201;48.776;9.128;2022-12-10T01:28:52;1.90;99.90
10312;DHT22;5201;48.776;9.128;2022-12-10T01:31:24;1.70;99.90
10312;DHT22;5201;48.776;9.128;2022-12-10T01:33:50;1.70;99.90
10312;DHT22;5201;48.776;9.128;2022-12-10T01:36:27;1.80;99.90
10312;DHT22;5201;48.776;9.128;2022-12-10T01:38:53;1.80;99.90
10312;DHT22;5201;48.776;9.128;2022-12-10T01:41:25;1.90;99.90
10312;DHT22;5201;48.776;9.128;2022-12-10T01:46:44;2.00;99.90
10312;DHT22;5201;48.776;9.128;2022-12-10T01:49:13;2.20;99.90
10312;DHT22;5201;48.776;9.128;2022-12-10T01:51:41;2.20;99.90
10312;DHT22;5201;48.776;9.128;2022-12-10T01:54:11;2.20;99.90
10312;DHT22;5201;48.776;9.128;2022-12-10T01:56:40;2.20;99.90
10312;DHT22;5201;48.776;9.128;2022-12-10T01:59:06;1.90;99.90
10312;DHT22;5201;48.776;9.128;2022-12-10T02:07:04;1.90;99.90
10312;DHT22;5201;48.776;9.128;2022-12-10T02:09:57;2.10;99.90
10312;DHT22;5201;48.776;9.128;2022-12-10T02:12:36;2.10;99.90
10312;DHT22;5201;48.776;9.128;2022-12-10T02:15:12;2.10;99.90
10312;DHT22;5201;48.776;9.128;2022-12-10T02:17:52;2.20;99.90
10312;DHT22;5201;48.776;9.128;2022-12-10T02:20:39;2.20;99.90
10312;DHT22;5201;48.776;9.128;2022-12-10T02:23:16;2.20;99.90
10312;DHT22;5201;48.776;9.128;2022-12-10T02:26:13;2.30;99.90
10312;DHT22;5201;48.776;9.128;2022-12-10T02:29:15;2.50;99.90
10312;DHT22;5201;48.776;9.128;2022-12-10T02:32:08;2.50;99.90
10312;DHT22;5201;48.776;9.128;2022-12-10T02:34:48;2.90;99.90
10312;DHT22;5201;48.776;9.128;2022-12-10T02:37:22;2.80;99.90
10312;DHT22;5201;48.776;9.128;2022-12-10T02:39:51;3.00;99.90
10312;DHT22;5201;48.776;9.128;2022-12-10T02:42:19;3.00;99.90
10312;DHT22;5201;48.776;9.128;2022-12-10T02:44:48;3.00;99.90
10312;DHT22;5201;48.776;9.128;2022-12-10T02:47:15;2.80;99.90
10312;DHT22;5201;48.776;9.128;2022-12-10T02:49:43;2.40;99.90
10312;DHT22;5201;48.776;9.128;2022-12-10T02:52:12;2.10;99.90
10312;DHT22;5201;48.776;9.128;2022-12-10T02:54:40;2.10;99.90
10312;DHT22;5201;48.776;9.128;2022-12-10T02:57:33;2.40;99.90
10312;DHT22;5201;48.776;9.128;2022-12-10T03:00:09;2.30;99.90
10312;DHT22;5201;48.776;9.128;2022-12-10T03:05:32;2.50;99.90
10312;DHT22;5201;48.776;9.128;2022-12-10T03:08:03;3.00;99.90
10312;DHT22;5201;48.776;9.128;2022-12-10T03:10:42;3.20;99.90
10312;DHT22;5201;48.776;9.128;2022-12-10T03:13:13;3.00;99.90
10312;DHT22;5201;48.776;9.128;2022-12-10T03:15:41;2.90;99.90
10312;DHT22;5201;48.776;9.128;2022-12-10T03:18:09;2.80;99.90
10312;DHT22;5201;48.776;9.128;2022-12-10T03:20:40;2.80;99.90
10312;DHT22;5201;48.776;9.128;2022-12-10T03:23:11;3.00;99.90
10312;DHT22;5201;48.776;9.128;2022-12-10T03:25:39;3.10;99.90
10312;DHT22;5201;48.776;9.128;2022-12-10T03:28:05;2.70;99.90
10312;DHT22;5201;48.776;9.128;2022-12-10T03:30:32;2.40;99.90
10312;DHT22;5201;48.776;9.128;2022-12-10T03:32:59;2.10;99.90
10312;DHT22;5201;48.776;9.128;2022-12-10T03:35:26;1.90;99.90
10312;DHT22;5201;48.776;9.128;2022-12-10T03:37:52;2.00;99.90
10312;DHT22;5201;48.776;9.128;2022-12-10T03:40:21;2.40;99.90
10312;DHT22;5201;48.776;9.128;2022-12-10T03:42:48;2.20;99.90
10312;DHT22;5201;48.776;9.128;2022-12-10T03:45:14;2.30;99.90
10312;DHT22;5201;48.776;9.128;2022-12-10T03:47:40;2.30;99.90
10312;DHT22;5201;48.776;9.128;2022-12-10T03:50:06;2.30;99.90
10312;DHT22;5201;48.776;9.128;2022-12-10T03:52:32;2.70;99.90
10312;DHT22;5201;48.776;9.128;2022-12-10T03:54:57;2.90;99.90
10312;DHT22;5201;48.776;9.128;2022-12-10T03:57:23;2.90;99.90
10312;DHT22;5201;48.776;9.128;2022-12-10T03:59:49;3.10;99.90
10312;DHT22;5201;48.776;9.128;2022-12-10T04:02:14;3.50;99.90
10312;DHT22;5201;48.776;9.128;2022-12-10T04:04:40;3.70;99.90
10312;DHT22;5201;48.776;9.128;2022-12-10T04:07:05;3.40;99.90
10312;DHT22;5201;48.776;9.128;2022-12-10T04:09:31;3.40;99.90
10312;DHT22;5201;48.776;9.128;2022-12-10T04:11:58;3.00;99.90
10312;DHT22;5201;48.776;9.128;2022-12-10T04:14:24;3.10;99.90
10312;DHT22;5201;48.776;9.128;2022-12-10T04:17:08;2.80;99.90
10312;DHT22;5201;48.776;9.128;2022-12-10T04:19:34;2.70;99.90
10312;DHT22;5201;48.776;9.128;2022-12-10T04:21:59;2.80;99.90
10312;DHT22;5201;48.776;9.128;2022-12-10T04:24:43;2.70;99.90
10312;DHT22;5201;48.776;9.128;2022-12-10T04:27:30;2.70;99.90
10312;DHT22;5201;48.776;9.128;2022-12-10T04:29:57;3.10;99.90
10312;DHT22;5201;48.776;9.128;2022-12-10T04:32:24;3.00;99.90
10312;DHT22;5201;48.776;9.128;2022-12-10T04:34:50;2.80;99.90
10312;DHT22;5201;48.776;9.128;2022-12-10T04:37:16;3.00;99.90
10312;DHT22;5201;48.776;9.128;2022-12-10T04:39:42;3.30;99.90
10312;DHT22;5201;48.776;9.128;2022-12-10T04:42:08;3.20;99.90
10312;DHT22;5201;48.776;9.128;2022-12-10T04:44:34;3.10;99.90
10312;DHT22;5201;48.776;9.128;2022-12-10T04:47:00;3.00;99.90
10312;DHT22;5201;48.776;9.128;2022-12-10T04:49:26;3.00;99.90
10312;DHT22;5201;48.776;9.128;2022-12-10T04:51:51;2.90;99.90
10312;DHT22;5201;48.776;9.128;2022-12-10T04:54:18;2.60;99.90
10312;DHT22;5201;48.776;9.128;2022-12-10T04:56:44;2.40;99.90
10312;DHT22;5201;48.776;9.128;2022-12-10T04:59:10;2.30;99.90
10312;DHT22;5201;48.776;9.128;2022-12-10T05:01:36;2.00;99.90
10312;DHT22;5201;48.776;9.128;2022-12-10T05:04:05;2.00;99.90
10312;DHT22;5201;48.776;9.128;2022-12-10T05:06:31;2.00;99.90
10312;DHT22;5201;48.776;9.128;2022-12-10T05:08:57;1.90;99.90
10312;DHT22;5201;48.776;9.128;2022-12-10T05:11:25;2.20;99.90
10312;DHT22;5201;48.776;9.128;2022-12-10T05:13:52;1.90;99.90
10312;DHT22;5201;48.776;9.128;2022-12-10T05:16:19;2.00;99.90
10312;DHT22;5201;48.776;9.128;2022-12-10T05:18:45;1.90;99.90
10312;DHT22;5201;48.776;9.128;2022-12-10T05:21:13;1.70;99.90
10312;DHT22;5201;48.776;9.128;2022-12-10T05:23:44;1.50;99.90
10312;DHT22;5201;48.776;9.128;2022-12-10T05:28:40;1.30;99.90
10312;DHT22;5201;48.776;9.128;2022-12-10T05:31:15;1.90;99.90
10312;DHT22;5201;48.776;9.128;2022-12-10T05:33:41;1.60;99.90
10312;DHT22;5201;48.776;9.128;2022-12-10T05:36:07;1.50;99.90
10312;DHT22;5201;48.776;9.128;2022-12-10T05:38:34;1.40;99.90
10312;DHT22;5201;48.776;9.128;2022-12-10T05:41:05;1.30;99.90
10312;DHT22;5201;48.776;9.128;2022-12-10T05:43:31;1.10;99.90
10312;DHT22;5201;48.776;9.128;2022-12-10T05:46:01;1.00;99.90
10312;DHT22;5201;48.776;9.128;2022-12-10T05:48:27;0.80;99.90
10312;DHT22;5201;48.776;9.128;2022-12-10T05:50:52;0.70;99.90
10312;DHT22;5201;48.776;9.128;2022-12-10T05:53:18;0.80;99.90
10312;DHT22;5201;48.776;9.128;2022-12-10T05:55:44;1.00;99.90
10312;DHT22;5201;48.776;9.128;2022-12-10T05:58:09;1.20;99.90
10312;DHT22;5201;48.776;9.128;2022-12-10T06:00:38;1.10;99.90
10312;DHT22;5201;48.776;9.128;2022-12-10T06:03:04;0.90;99.90
10312;DHT22;5201;48.776;9.128;2022-12-10T06:05:29;1.00;99.90
10312;DHT22;5201;48.776;9.128;2022-12-10T06:07:55;0.80;99.90
10312;DHT22;5201;48.776;9.128;2022-12-10T06:10:20;0.80;99.90
10312;DHT22;5201;48.776;9.128;2022-12-10T06:12:46;1.00;99.90
10312;DHT22;5201;48.776;9.128;2022-12-10T06:15:11;1.10;99.90
10312;DHT22;5201;48.776;9.128;2022-12-10T06:17:37;1.40;99.90
10312;DHT22;5201;48.776;9.128;2022-12-10T06:20:03;1.60;99.90
10312;DHT22;5201;48.776;9.128;2022-12-10T06:22:28;2.20;99.90
10312;DHT22;5201;48.776;9.128;2022-12-10T06:24:54;2.10;99.90
10312;DHT22;5201;48.776;9.128;2022-12-10T06:27:19;1.80;99.90
10312;DHT22;5201;48.776;9.128;2022-12-10T06:29:45;2.10;99.90
10312;DHT22;5201;48.776;9.128;2022-12-10T06:32:11;2.00;99.90
10312;DHT22;5201;48.776;9.128;2022-12-10T06:34:36;2.00;99.90
10312;DHT22;5201;48.776;9.128;2022-12-10T06:37:02;1.70;99.90
10312;DHT22;5201;48.776;9.128;2022-12-10T06:39:27;1.40;99.90
10312;DHT22;5201;48.776;9.128;2022-12-10T06:41:53;1.40;99.90
10312;DHT22;5201;48.776;9.128;2022-12-10T06:44:18;1.50;99.90
10312;DHT22;5201;48.776;9.128;2022-12-10T06:46:44;1.70;99.90
10312;DHT22;5201;48.776;9.128;2022-12-10T06:49:09;1.60;99.90
10312;DHT22;5201;48.776;9.128;2022-12-10T06:51:35;1.60;99.90
10312;DHT22;5201;48.776;9.128;2022-12-10T06:54:01;1.70;99.90
10312;DHT22;5201;48.776;9.128;2022-12-10T06:56:26;1.80;99.90
10312;DHT22;5201;48.776;9.128;2022-12-10T06:58:52;2.20;99.90
10312;DHT22;5201;48.776;9.128;2022-12-10T07:01:23;1.70;99.90
10312;DHT22;5201;48.776;9.128;2022-12-10T07:03:54;1.70;99.90
10312;DHT22;5201;48.776;9.128;2022-12-10T07:06:20;1.70;99.90
10312;DHT22;5201;48.776;9.128;2022-12-10T07:08:47;1.70;99.90
10312;DHT22;5201;48.776;9.128;2022-12-10T07:11:15;1.80;99.90
10312;DHT22;5201;48.776;9.128;2022-12-10T07:13:42;2.10;99.90
10312;DHT22;5201;48.776;9.128;2022-12-10T07:16:21;2.30;99.90
10312;DHT22;5201;48.776;9.128;2022-12-10T07:18:48;2.30;99.90
10312;DHT22;5201;48.776;9.128;2022-12-10T07:21:16;2.30;99.90
10312;DHT22;5201;48.776;9.128;2022-12-10T07:23:42;2.70;99.90
10312;DHT22;5201;48.776;9.128;2022-12-10T07:26:08;2.90;99.90
10312;DHT22;5201;48.776;9.128;2022-12-10T07:28:33;3.10;99.90
10312;DHT22;5201;48.776;9.128;2022-12-10T07:31:03;3.10;99.90
10312;DHT22;5201;48.776;9.128;2022-12-10T07:33:29;3.10;99.90
10312;DHT22;5201;48.776;9.128;2022-12-10T07:35:55;2.90;99.90
10312;DHT22;5201;48.776;9.128;2022-12-10T07:38:22;2.90;99.90
10312;DHT22;5201;48.776;9.128;2022-12-10T07:40:48;2.90;99.90
10312;DHT22;5201;48.776;9.128;2022-12-10T07:43:14;2.70;99.90
10312;DHT22;5201;48.776;9.128;2022-12-10T07:45:39;2.70;99.90
10312;DHT22;5201;48.776;9.128;2022-12-10T07:48:05;2.70;99.90
10312;DHT22;5201;48.776;9.128;2022-12-10T07:50:30;2.60;99.90
10312;DHT22;5201;48.776;9.128;2022-12-10T07:52:56;2.30;99.90
10312;DHT22;5201;48.776;9.128;2022-12-10T07:55:21;2.30;99.90
10312;DHT22;5201;48.776;9.128;2022-12-10T07:57:47;2.20;99.90
10312;DHT22;5201;48.776;9.128;2022-12-10T08:00:13;2.20;99.90
10312;DHT22;5201;48.776;9.128;2022-12-10T08:02:38;2.10;99.90
10312;DHT22;5201;48.776;9.128;2022-12-10T08:05:04;2.30;99.90
10312;DHT22;5201;48.776;9.128;2022-12-10T08:07:30;2.00;99.90
10312;DHT22;5201;48.776;9.128;2022-12-10T08:09:55;1.90;99.90
10312;DHT22;5201;48.776;9.128;2022-12-10T08:12:21;2.10;99.90
10312;DHT22;5201;48.776;9.128;2022-12-10T08:14:47;2.40;99.90
10312;DHT22;5201;48.776;9.128;2022-12-10T08:17:12;2.10;99.90
10312;DHT22;5201;48.776;9.128;2022-12-10T08:19:38;1.60;99.90
10312;DHT22;5201;48.776;9.128;2022-12-10T08:22:03;1.70;99.90
10312;DHT22;5201;48.776;9.128;2022-12-10T08:24:29;1.70;99.90
10312;DHT22;5201;48.776;9.128;2022-12-10T08:26:54;2.10;99.90
10312;DHT22;5201;48.776;9.128;2022-12-10T08:29:20;2.10;99.90
10312;DHT22;5201;48.776;9.128;2022-12-10T08:31:46;1.90;99.90
10312;DHT22;5201;48.776;9.128;2022-12-10T08:34:13;1.50;99.90
10312;DHT22;5201;48.776;9.128;2022-12-10T08:36:39;1.00;99.90
10312;DHT22;5201;48.776;9.128;2022-12-10T08:39:04;0.90;99.90
10312;DHT22;5201;48.776;9.128;2022-12-10T08:41:30;0.90;99.90
10312;DHT22;5201;48.776;9.128;2022-12-10T08:43:55;0.80;99.90
10312;DHT22;5201;48.776;9.128;2022-12-10T08:46:21;1.10;99.90
10312;DHT22;5201;48.776;9.128;2022-12-10T08:48:48;1.20;99.90
10312;DHT22;5201;48.776;9.128;2022-12-10T08:51:16;1.30;99.90
10312;DHT22;5201;48.776;9.128;2022-12-10T08:53:42;1.50;99.90
10312;DHT22;5201;48.776;9.128;2022-12-10T08:56:08;1.90;99.90
10312;DHT22;5201;48.776;9.128;2022-12-10T08:58:33;1.90;99.90
10312;DHT22;5201;48.776;9.128;2022-12-10T09:00:59;2.40;99.90
10312;DHT22;5201;48.776;9.128;2022-12-10T09:03:30;1.60;99.90
10312;DHT22;5201;48.776;9.128;2022-12-10T09:05:55;1.80;99.90
10312;DHT22;5201;48.776;9.128;2022-12-10T09:08:21;2.00;99.90
10312;DHT22;5201;48.776;9.128;2022-12-10T09:10:46;1.90;99.90
10312;DHT22;5201;48.776;9.128;2022-12-10T09:13:12;2.10;99.90
10312;DHT22;5201;48.776;9.128;2022-12-10T09:15:37;1.90;99.90
10312;DHT22;5201;48.776;9.128;2022-12-10T09:18:03;1.80;99.90
10312;DHT22;5201;48.776;9.128;2022-12-10T09:20:29;1.60;99.90
10312;DHT22;5201;48.776;9.128;2022-12-10T09:22:54;1.70;99.90
10312;DHT22;5201;48.776;9.128;2022-12-10T09:25:20;1.80;99.90
10312;DHT22;5201;48.776;9.128;2022-12-10T09:27:46;1.70;99.90
10312;DHT22;5201;48.776;9.128;2022-12-10T09:30:12;1.80;99.90
10312;DHT22;5201;48.776;9.128;2022-12-10T09:32:38;1.90;99.90
10312;DHT22;5201;48.776;9.128;2022-12-10T09:35:04;1.90;99.90
10312;DHT22;5201;48.776;9.128;2022-12-10T09:37:30;1.90;99.90
10312;DHT22;5201;48.776;9.128;2022-12-10T09:39:56;2.00;99.90
10312;DHT22;5201;48.776;9.128;2022-12-10T09:45:20;2.10;99.90
10312;DHT22;5201;48.776;9.128;2022-12-10T09:53:13;2.00;99.90
10312;DHT22;5201;48.776;9.128;2022-12-10T09:55:44;1.90;99.90
10312;DHT22;5201;48.776;9.128;2022-12-10T09:58:16;1.80;99.90
10312;DHT22;5201;48.776;9.128;2022-12-10T10:00:45;1.70;99.90
10312;DHT22;5201;48.776;9.128;2022-12-10T10:03:15;2.00;99.90
10312;DHT22;5201;48.776;9.128;2022-12-10T10:05:46;2.00;99.90
10312;DHT22;5201;48.776;9.128;2022-12-10T10:08:29;2.10;99.90
10312;DHT22;5201;48.776;9.128;2022-12-10T10:10:58;2.40;99.90
10312;DHT22;5201;48.776;9.128;2022-12-10T10:13:43;2.50;99.90
10312;DHT22;5201;48.776;9.128;2022-12-10T10:16:17;2.50;99.90
10312;DHT22;5201;48.776;9.128;2022-12-10T10:19:04;2.70;99.90
10312;DHT22;5201;48.776;9.128;2022-12-10T10:21:39;2.60;99.90
10312;DHT22;5201;48.776;9.128;2022-12-10T10:24:06;2.30;99.90
10312;DHT22;5201;48.776;9.128;2022-12-10T10:26:35;2.60;99.90
10312;DHT22;5201;48.776;9.128;2022-12-10T10:29:04;2.60;99.90
10312;DHT22;5201;48.776;9.128;2022-12-10T10:31:32;2.30;99.90
10312;DHT22;5201;48.776;9.128;2022-12-10T10:34:02;2.10;99.90
10312;DHT22;5201;48.776;9.128;2022-12-10T10:36:36;1.90;99.90
10312;DHT22;5201;48.776;9.128;2022-12-10T10:39:26;1.70;99.90
10312;DHT22;5201;48.776;9.128;2022-12-10T10:41:54;1.50;99.90
10312;DHT22;5201;48.776;9.128;2022-12-10T10:44:22;1.60;99.90
10312;DHT22;5201;48.776;9.128;2022-12-10T10:46:52;1.50;99.90
10312;DHT22;5201;48.776;9.128;2022-12-10T10:51:46;1.50;99.90
10312;DHT22;5201;48.776;9.128;2022-12-10T10:54:31;1.50;99.90
10312;DHT22;5201;48.776;9.128;2022-12-10T10:56:57;1.60;99.90
10312;DHT22;5201;48.776;9.128;2022-12-10T10:59:34;1.40;99.90
10312;DHT22;5201;48.776;9.128;2022-12-10T11:02:25;1.50;99.90
10312;DHT22;5201;48.776;9.128;2022-12-10T11:04:54;1.60;99.90
10312;DHT22;5201;48.776;9.128;2022-12-10T11:07:36;1.60;99.90
10312;DHT22;5201;48.776;9.128;2022-12-10T11:10:14;1.50;99.90
10312;DHT22;5201;48.776;9.128;2022-12-10T11:12:41;1.40;99.90
10312;DHT22;5201;48.776;9.128;2022-12-10T11:17:50;1.50;99.90
10312;DHT22;5201;48.776;9.128;2022-12-10T11:20:18;1.50;99.90
10312;DHT22;5201;48.776;9.128;2022-12-10T11:23:12;1.40;99.90
10312;DHT22;5201;48.776;9.128;2022-12-10T11:31:08;1.70;99.90
10312;DHT22;5201;48.776;9.128;2022-12-10T11:36:57;1.70;99.90
10312;DHT22;5201;48.776;9.128;2022-12-10T11:39:45;1.50;99.90
10312;DHT22;5201;48.776;9.128;2022-12-10T11:42:34;1.40;99.90
10312;DHT22;5201;48.776;9.128;2022-12-10T11:45:24;1.30;99.90
10312;DHT22;5201;48.776;9.128;2022-12-10T11:53:19;1.50;99.90
10312;DHT22;5201;48.776;9.128;2022-12-10T11:55:57;1.60;99.90
10312;DHT22;5201;48.776;9.128;2022-12-10T11:58:48;1.40;99.90
10312;DHT22;5201;48.776;9.128;2022-12-10T12:01:31;1.40;99.90
10312;DHT22;5201;48.776;9.128;2022-12-10T12:12:49;1.80;99.90
10312;DHT22;5201;48.776;9.128;2022-12-10T12:15:20;1.60;99.90
10312;DHT22;5201;48.776;9.128;2022-12-10T12:17:51;1.80;99.90
10312;DHT22;5201;48.776;9.128;2022-12-10T12:20:22;2.00;99.90
10312;DHT22;5201;48.776;9.128;2022-12-10T12:22:56;2.10;99.90
10312;DHT22;5201;48.776;9.128;2022-12-10T12:25:31;2.30;99.90
10312;DHT22;5201;48.776;9.128;2022-12-10T12:30:39;2.10;99.90
10312;DHT22;5201;48.776;9.128;2022-12-10T12:33:20;2.00;99.90
10312;DHT22;5201;48.776;9.128;2022-12-10T12:35:57;1.80;99.90
10312;DHT22;5201;48.776;9.128;2022-12-10T12:38:30;1.70;99.90
10312;DHT22;5201;48.776;9.128;2022-12-10T12:41:33;1.50;99.90
10312;DHT22;5201;48.776;9.128;2022-12-10T12:44:13;1.60;99.90
10312;DHT22;5201;48.776;9.128;2022-12-10T12:46:43;1.70;99.90
10312;DHT22;5201;48.776;9.128;2022-12-10T12:52:02;2.10;99.90
10312;DHT22;5201;48.776;9.128;2022-12-10T12:54:31;2.30;99.90
10312;DHT22;5201;48.776;9.128;2022-12-10T12:57:13;2.30;99.90
10312;DHT22;5201;48.776;9.128;2022-12-10T13:00:03;2.30;99.90
10312;DHT22;5201;48.776;9.128;2022-12-10T13:02:44;2.60;99.90
10312;DHT22;5201;48.776;9.128;2022-12-10T13:05:18;2.40;99.90
10312;DHT22;5201;48.776;9.128;2022-12-10T13:13:35;2.20;99.90
10312;DHT22;5201;48.776;9.128;2022-12-10T13:16:34;2.40;99.90
10312;DHT22;5201;48.776;9.128;2022-12-10T13:22:04;2.20;99.90
10312;DHT22;5201;48.776;9.128;2022-12-10T13:24:46;2.30;99.90
10312;DHT22;5201;48.776;9.128;2022-12-10T13:27:22;2.30;99.90
10312;DHT22;5201;48.776;9.128;2022-12-10T13:46:33;2.50;99.90
10312;DHT22;5201;48.776;9.128;2022-12-10T13:49:03;2.60;99.90
10312;DHT22;5201;48.776;9.128;2022-12-10T13:52:04;2.80;99.90
10312;DHT22;5201;48.776;9.128;2022-12-10T13:54:59;2.90;99.90
10312;DHT22;5201;48.776;9.128;2022-12-10T14:05:55;2.90;99.90
10312;DHT22;5201;48.776;9.128;2022-12-10T14:08:26;2.70;99.90
10312;DHT22;5201;48.776;9.128;2022-12-10T14:10:53;2.60;99.90
10312;DHT22;5201;48.776;9.128;2022-12-10T14:13:30;2.70;99.90
10312;DHT22;5201;48.776;9.128;2022-12-10T14:15:59;2.80;99.90
10312;DHT22;5201;48.776;9.128;2022-12-10T14:18:28;2.70;99.90
10312;DHT22;5201;48.776;9.128;2022-12-10T14:20:55;2.90;99.90
10312;DHT22;5201;48.776;9.128;2022-12-10T14:23:30;2.80;99.90
10312;DHT22;5201;48.776;9.128;2022-12-10T14:28:31;2.40;99.90
10312;DHT22;5201;48.776;9.128;2022-12-10T14:30:58;2.30;99.90
10312;DHT22;5201;48.776;9.128;2022-12-10T14:33:24;2.20;99.90
10312;DHT22;5201;48.776;9.128;2022-12-10T14:35:52;2.30;99.90
10312;DHT22;5201;48.776;9.128;2022-12-10T14:38:29;2.50;99.90
10312;DHT22;5201;48.776;9.128;2022-12-10T14:40:55;2.30;99.90
10312;DHT22;5201;48.776;9.128;2022-12-10T14:43:24;2.10;99.90
10312;DHT22;5201;48.776;9.128;2022-12-10T14:45:59;1.70;99.90
10312;DHT22;5201;48.776;9.128;2022-12-10T14:48:25;1.40;99.90
10312;DHT22;5201;48.776;9.128;2022-12-10T14:50:51;1.20;99.90
10312;DHT22;5201;48.776;9.128;2022-12-10T14:53:21;1.30;99.90
10312;DHT22;5201;48.776;9.128;2022-12-10T14:55:50;1.10;99.90
10312;DHT22;5201;48.776;9.128;2022-12-10T14:58:37;1.00;99.90
10312;DHT22;5201;48.776;9.128;2022-12-10T15:01:04;1.00;99.90
10312;DHT22;5201;48.776;9.128;2022-12-10T15:03:34;1.20;99.90
10312;DHT22;5201;48.776;9.128;2022-12-10T15:06:02;1.30;99.90
10312;DHT22;5201;48.776;9.128;2022-12-10T15:08:33;1.30;99.90
10312;DHT22;5201;48.776;9.128;2022-12-10T15:11:00;1.30;99.90
10312;DHT22;5201;48.776;9.128;2022-12-10T15:13:35;1.50;99.90
10312;DHT22;5201;48.776;9.128;2022-12-10T15:16:03;1.30;99.90
10312;DHT22;5201;48.776;9.128;2022-12-10T15:18:36;1.30;99.90
10312;DHT22;5201;48.776;9.128;2022-12-10T15:21:14;1.30;99.90
10312;DHT22;5201;48.776;9.128;2022-12-10T15:23:43;1.40;99.90
10312;DHT22;5201;48.776;9.128;2022-12-10T15:26:19;1.40;99.90
10312;DHT22;5201;48.776;9.128;2022-12-10T15:28:47;1.60;99.90
10312;DHT22;5201;48.776;9.128;2022-12-10T15:33:50;1.50;99.90
10312;DHT22;5201;48.776;9.128;2022-12-10T15:38:46;1.60;99.90
10312;DHT22;5201;48.776;9.128;2022-12-10T15:41:43;1.70;99.90
10312;DHT22;5201;48.776;9.128;2022-12-10T15:44:36;1.80;99.90
10312;DHT22;5201;48.776;9.128;2022-12-10T15:47:23;1.90;99.90
10312;DHT22;5201;48.776;9.128;2022-12-10T15:49:50;1.80;99.90
10312;DHT22;5201;48.776;9.128;2022-12-10T15:52:18;1.90;99.90
10312;DHT22;5201;48.776;9.128;2022-12-10T15:54:46;2.00;99.90
10312;DHT22;5201;48.776;9.128;2022-12-10T15:57:16;2.20;99.90
10312;DHT22;5201;48.776;9.128;2022-12-10T15:59:46;2.20;99.90
10312;DHT22;5201;48.776;9.128;2022-12-10T16:02:24;0.10;99.90
10312;DHT22;5201;48.776;9.128;2022-12-10T16:04:51;2.20;99.90
10312;DHT22;5201;48.776;9.128;2022-12-10T16:07:17;2.20;99.90
10312;DHT22;5201;48.776;9.128;2022-12-10T16:09:43;2.30;99.90
10312;DHT22;5201;48.776;9.128;2022-12-10T16:12:16;2.20;99.90
10312;DHT22;5201;48.776;9.128;2022-12-10T16:14:48;2.40;99.90
10312;DHT22;5201;48.776;9.128;2022-12-10T16:17:14;2.40;99.90
10312;DHT22;5201;48.776;9.128;2022-12-10T16:19:40;2.50;99.90
10312;DHT22;5201;48.776;9.128;2022-12-10T16:22:05;2.50;99.90
10312;DHT22;5201;48.776;9.128;2022-12-10T16:24:31;2.50;99.90
10312;DHT22;5201;48.776;9.128;2022-12-10T16:26:57;2.50;99.90
10312;DHT22;5201;48.776;9.128;2022-12-10T16:29:22;2.80;99.90
10312;DHT22;5201;48.776;9.128;2022-12-10T16:31:49;2.70;99.90
10312;DHT22;5201;48.776;9.128;2022-12-10T16:34:14;2.70;99.90
10312;DHT22;5201;48.776;9.128;2022-12-10T16:36:40;2.60;99.90
10312;DHT22;5201;48.776;9.128;2022-12-10T16:39:05;2.40;99.90
10312;DHT22;5201;48.776;9.128;2022-12-10T16:41:32;2.20;99.90
10312;DHT22;5201;48.776;9.128;2022-12-10T16:43:58;1.90;99.90
10312;DHT22;5201;48.776;9.128;2022-12-10T16:46:24;2.00;99.90
10312;DHT22;5201;48.776;9.128;2022-12-10T16:48:49;1.80;99.90
10312;DHT22;5201;48.776;9.128;2022-12-10T16:51:20;1.80;99.90
10312;DHT22;5201;48.776;9.128;2022-12-10T16:53:47;1.80;99.90
10312;DHT22;5201;48.776;9.128;2022-12-10T16:56:14;1.70;99.90
10312;DHT22;5201;48.776;9.128;2022-12-10T16:58:40;1.80;99.90
10312;DHT22;5201;48.776;9.128;2022-12-10T17:01:18;1.60;99.90
10312;DHT22;5201;48.776;9.128;2022-12-10T17:03:44;1.90;99.90
10312;DHT22;5201;48.776;9.128;2022-12-10T17:06:11;1.90;99.90
10312;DHT22;5201;48.776;9.128;2022-12-10T17:08:37;2.20;99.90
10312;DHT22;5201;48.776;9.128;2022-12-10T17:11:25;2.30;99.90
10312;DHT22;5201;48.776;9.128;2022-12-10T17:16:47;2.50;99.90
10312;DHT22;5201;48.776;9.128;2022-12-10T17:19:13;2.50;99.90
10312;DHT22;5201;48.776;9.128;2022-12-10T17:21:39;2.20;99.90
10312;DHT22;5201;48.776;9.128;2022-12-10T17:24:05;2.10;99.90
10312;DHT22;5201;48.776;9.128;2022-12-10T17:26:33;2.20;99.90
10312;DHT22;5201;48.776;9.128;2022-12-10T17:29:06;2.00;99.90
10312;DHT22;5201;48.776;9.128;2022-12-10T17:31:32;2.00;99.90
10312;DHT22;5201;48.776;9.128;2022-12-10T17:33:58;2.00;99.90
10312;DHT22;5201;48.776;9.128;2022-12-10T17:36:24;1.90;99.90
10312;DHT22;5201;48.776;9.128;2022-12-10T17:38:49;1.80;99.90
10312;DHT22;5201;48.776;9.128;2022-12-10T17:41:15;1.70;99.90
10312;DHT22;5201;48.776;9.128;2022-12-10T17:43:42;1.70;99.90
10312;DHT22;5201;48.776;9.128;2022-12-10T17:46:11;1.90;99.90
10312;DHT22;5201;48.776;9.128;2022-12-10T17:48:37;1.90;99.90
10312;DHT22;5201;48.776;9.128;2022-12-10T17:51:04;1.70;99.90
10312;DHT22;5201;48.776;9.128;2022-12-10T17:53:29;1.70;99.90
10312;DHT22;5201;48.776;9.128;2022-12-10T17:55:58;1.90;99.90
10312;DHT22;5201;48.776;9.128;2022-12-10T17:58:25;2.00;99.90